Time;durP1;ratioP1;P1;durP2;ratioP2;P2;SDS_P1;SDS_P2;PMS_P1;PMS_P2;Temp;Humidity;BMP_temperature;BMP_pressure;BME280_temperature;BME280_humidity;BME280_pressure;Samples;Min_cycle;Max_cycle;Signal;HPM_P1;HPM_P2
2021/12/23 00:05:46;;;;;;;27.35;17.17;;;;;;;;;;5222768;23;20053;-94
2021/12/23 00:26:00;;;;;;;32.38;18.10;;;;;;;;;;4876532;29;20056;-81
2021/12/23 00:28:28;;;;;;;31.48;18.13;;;;;;;;;;4893963;29;20088;-78
2021/12/23 00:30:55;;;;;;;32.28;18.65;;;;;;;;;;4885019;29;20033;-81
2021/12/23 00:33:22;;;;;;;33.33;20.00;;;;;;;;;;4860528;29;20032;-78
2021/12/23 00:35:48;;;;;;;34.42;19.42;;;;;;;;;;4854221;29;20124;-80
2021/12/23 00:38:21;;;;;;;34.08;19.63;;;;;;;;;;4871952;29;20487;-78
2021/12/23 00:40:47;;;;;;;32.10;19.63;;;;;;;;;;4874286;29;20025;-87
2021/12/23 00:43:15;;;;;;;33.25;20.90;;;;;;;;;;4875995;29;20021;-88
2021/12/23 00:45:41;;;;;;;31.85;20.48;;;;;;;;;;4876261;29;20033;-92
2021/12/23 00:48:07;;;;;;;35.40;21.08;;;;;;;;;;4843419;29;20044;-76
2021/12/23 00:50:33;;;;;;;34.38;20.10;;;;;;;;;;4866911;29;20051;-92
2021/12/23 00:53:05;;;;;;;35.22;21.42;;;;;;;;;;4871324;29;20057;-92
2021/12/23 00:55:41;;;;;;;36.67;21.15;;;;;;;;;;4863455;29;20061;-86
2021/12/23 00:58:11;;;;;;;36.65;21.05;;;;;;;;;;4896432;29;20016;-92
2021/12/23 01:00:38;;;;;;;33.38;20.50;;;;;;;;;;4887556;29;20045;-81
2021/12/23 01:03:14;;;;;;;35.10;19.58;;;;;;;;;;4879811;29;20033;-90
2021/12/23 01:05:40;;;;;;;31.23;19.10;;;;;;;;;;4861155;29;20030;-89
2021/12/23 01:08:07;;;;;;;32.97;18.48;;;;;;;;;;4858866;29;20034;-91
2021/12/23 01:10:38;;;;;;;31.73;19.08;;;;;;;;;;4874226;29;20479;-82
2021/12/23 01:13:05;;;;;;;32.83;18.30;;;;;;;;;;4858377;29;20030;-80
2021/12/23 01:18:10;;;;;;;29.80;16.88;;;;;;;;;;4858687;29;20049;-92
2021/12/23 01:20:37;;;;;;;28.10;16.33;;;;;;;;;;4840710;29;20042;-81
2021/12/23 01:23:07;;;;;;;25.55;16.27;;;;;;;;;;4868762;29;20034;-79
2021/12/23 01:25:36;;;;;;;27.17;16.85;;;;;;;;;;4870559;29;20113;-86
2021/12/23 01:28:02;;;;;;;30.88;18.38;;;;;;;;;;4876444;29;20471;-87
2021/12/23 01:30:28;;;;;;;34.65;17.85;;;;;;;;;;4855820;29;20479;-87
2021/12/23 01:32:59;;;;;;;27.40;17.40;;;;;;;;;;4869816;29;20018;-87
2021/12/23 01:35:29;;;;;;;28.77;15.93;;;;;;;;;;4872929;29;20037;-88
2021/12/23 01:38:17;;;;;;;32.72;18.58;;;;;;;;;;4868088;29;20033;-77
2021/12/23 01:46:17;;;;;;;22.85;14.70;;;;;;;;;;5006487;23;20057;-94
2021/12/23 01:49:03;;;;;;;24.08;15.20;;;;;;;;;;4896306;29;20045;-88
2021/12/23 01:51:52;;;;;;;29.92;17.58;;;;;;;;;;4900166;29;20066;-92
2021/12/23 01:54:40;;;;;;;26.10;16.35;;;;;;;;;;4878649;29;20132;-81
2021/12/23 01:58:00;;;;;;;29.23;16.38;;;;;;;;;;4876053;29;20041;-84
2021/12/23 02:00:27;;;;;;;26.45;15.50;;;;;;;;;;4881767;29;20141;-83
2021/12/23 02:14:18;;;;;;;135.55;53.33;;;;;;;;;;5834077;23;20067;-80
2021/12/23 02:16:50;;;;;;;22.35;13.57;;;;;;;;;;4885955;29;20056;-78
2021/12/23 02:19:36;;;;;;;26.40;17.33;;;;;;;;;;4900627;29;20100;-92
2021/12/23 02:22:02;;;;;;;24.45;13.63;;;;;;;;;;4888344;29;20013;-77
2021/12/23 02:24:31;;;;;;;22.80;13.38;;;;;;;;;;4906958;29;20037;-78
2021/12/23 02:26:57;;;;;;;25.67;14.75;;;;;;;;;;4906672;29;20056;-80
2021/12/23 02:35:20;;;;;;;21.77;13.05;;;;;;;;;;4036969;27;20041;-85
2021/12/23 02:38:11;;;;;;;22.13;14.25;;;;;;;;;;4853084;29;20048;-92
2021/12/23 02:41:25;;;;;;;25.35;14.30;;;;;;;;;;4867845;29;20053;-90
2021/12/23 02:44:37;;;;;;;28.55;15.13;;;;;;;;;;4850869;29;20034;-87
2021/12/23 02:47:12;;;;;;;27.70;15.63;;;;;;;;;;4845928;29;20050;-92
2021/12/23 02:50:19;;;;;;;30.27;16.13;;;;;;;;;;4795678;30;20084;-90
2021/12/23 02:53:13;;;;;;;28.30;15.20;;;;;;;;;;4760059;30;20040;-91
2021/12/23 02:56:30;;;;;;;24.52;14.68;;;;;;;;;;4742100;30;20022;-91
2021/12/23 02:59:06;;;;;;;25.40;15.13;;;;;;;;;;4714188;30;20118;-91
2021/12/23 03:01:58;;;;;;;28.90;15.48;;;;;;;;;;4723801;30;20072;-91
2021/12/23 03:04:44;;;;;;;23.67;13.63;;;;;;;;;;4711368;30;20038;-87
2021/12/23 03:07:12;;;;;;;23.88;14.65;;;;;;;;;;4722362;30;20026;-86
2021/12/23 03:09:41;;;;;;;25.77;14.25;;;;;;;;;;4726131;30;20129;-92
2021/12/23 03:12:47;;;;;;;23.90;14.40;;;;;;;;;;4728333;30;20506;-91
2021/12/23 03:15:23;;;;;;;24.13;13.80;;;;;;;;;;4718239;30;20050;-89
2021/12/23 03:18:23;;;;;;;24.33;14.68;;;;;;;;;;4708491;30;20042;-93
2021/12/23 03:21:12;;;;;;;25.05;14.80;;;;;;;;;;4737173;30;20037;-91
2021/12/23 03:24:03;;;;;;;25.23;14.43;;;;;;;;;;4763807;30;20092;-90
2021/12/23 03:26:50;;;;;;;25.63;15.38;;;;;;;;;;4797515;30;20107;-91
2021/12/23 03:29:42;;;;;;;23.33;13.90;;;;;;;;;;4812447;29;20128;-91
2021/12/23 03:37:33;;;;;;;30.30;17.05;;;;;;;;;;4884173;29;20047;-91
2021/12/23 03:40:10;;;;;;;30.23;16.65;;;;;;;;;;4885295;29;20049;-91
2021/12/23 03:42:42;;;;;;;26.65;15.77;;;;;;;;;;4865272;29;20061;-88
2021/12/23 03:45:48;;;;;;;26.85;14.80;;;;;;;;;;4880679;29;20033;-89
2021/12/23 03:48:34;;;;;;;24.52;14.63;;;;;;;;;;4840501;29;20111;-88
2021/12/23 03:51:03;;;;;;;24.05;14.77;;;;;;;;;;4867955;29;20045;-89
2021/12/23 03:53:51;;;;;;;27.08;16.98;;;;;;;;;;4877085;29;20065;-90
2021/12/23 03:56:40;;;;;;;27.35;17.30;;;;;;;;;;4866996;29;20113;-89
2021/12/23 03:59:27;;;;;;;29.83;17.40;;;;;;;;;;4846278;29;20035;-92
2021/12/23 04:02:22;;;;;;;25.80;15.98;;;;;;;;;;4845207;29;20027;-90
2021/12/23 04:05:12;;;;;;;25.50;15.57;;;;;;;;;;4847156;29;20115;-92
2021/12/23 04:07:44;;;;;;;29.17;16.08;;;;;;;;;;4827630;29;20052;-89
2021/12/23 04:11:01;;;;;;;33.53;18.42;;;;;;;;;;4828967;29;20023;-90
2021/12/23 04:13:32;;;;;;;34.05;16.08;;;;;;;;;;4837250;29;20034;-91
2021/12/23 04:16:28;;;;;;;38.20;16.92;;;;;;;;;;4845167;29;20015;-90
2021/12/23 04:19:11;;;;;;;27.63;14.30;;;;;;;;;;4844922;29;20069;-91
2021/12/23 04:21:53;;;;;;;24.35;13.18;;;;;;;;;;4829461;29;20037;-92
2021/12/23 04:24:34;;;;;;;24.27;13.85;;;;;;;;;;4840781;29;20078;-92
2021/12/23 04:27:40;;;;;;;21.77;13.70;;;;;;;;;;4841186;29;20022;-92
2021/12/23 04:30:42;;;;;;;28.40;15.88;;;;;;;;;;4870160;29;20034;-92
2021/12/23 04:33:33;;;;;;;33.60;18.45;;;;;;;;;;4881334;29;20101;-92
2021/12/23 04:36:19;;;;;;;32.70;18.92;;;;;;;;;;4877029;29;20575;-90
2021/12/23 04:39:10;;;;;;;36.28;20.35;;;;;;;;;;4863241;29;20053;-92
2021/12/23 04:41:46;;;;;;;31.13;18.48;;;;;;;;;;4862266;29;20083;-92
2021/12/23 04:44:32;;;;;;;27.77;16.35;;;;;;;;;;4882691;29;20038;-88
2021/12/23 04:47:40;;;;;;;37.80;18.52;;;;;;;;;;4862569;29;20037;-88
2021/12/23 04:50:09;;;;;;;22.67;12.57;;;;;;;;;;4878154;29;20033;-89
2021/12/23 04:52:35;;;;;;;19.60;12.75;;;;;;;;;;4842418;29;20093;-83
2021/12/23 04:55:05;;;;;;;18.55;11.38;;;;;;;;;;4872984;29;20032;-77
2021/12/23 04:57:31;;;;;;;19.38;10.30;;;;;;;;;;4870835;29;20045;-79
2021/12/23 04:59:57;;;;;;;15.23;9.45;;;;;;;;;;4861724;29;20062;-88
2021/12/23 05:02:23;;;;;;;12.93;7.65;;;;;;;;;;4878461;29;20104;-88
2021/12/23 05:04:50;;;;;;;14.00;8.63;;;;;;;;;;4880366;29;20045;-80
2021/12/23 05:07:28;;;;;;;15.57;9.43;;;;;;;;;;4868375;29;20022;-90
2021/12/23 05:10:04;;;;;;;15.77;8.80;;;;;;;;;;4866650;29;20029;-90
2021/12/23 05:12:35;;;;;;;13.65;9.25;;;;;;;;;;4883713;29;20077;-94
2021/12/23 05:15:06;;;;;;;17.13;9.50;;;;;;;;;;4874982;29;20425;-83
2021/12/23 05:18:01;;;;;;;17.67;10.45;;;;;;;;;;4877042;29;20049;-88
2021/12/23 05:20:30;;;;;;;17.38;10.07;;;;;;;;;;4878802;29;20034;-91
2021/12/23 05:23:12;;;;;;;23.27;11.50;;;;;;;;;;4864028;29;20050;-85
2021/12/23 05:25:43;;;;;;;18.88;12.07;;;;;;;;;;4868750;29;20022;-91
2021/12/23 05:28:09;;;;;;;21.98;12.50;;;;;;;;;;4871188;29;20395;-83
2021/12/23 05:30:37;;;;;;;20.38;11.88;;;;;;;;;;4880632;29;20038;-87
2021/12/23 05:33:05;;;;;;;18.13;11.15;;;;;;;;;;4868125;29;20044;-84
2021/12/23 05:35:33;;;;;;;18.75;11.60;;;;;;;;;;4866478;29;20123;-85
2021/12/23 05:38:25;;;;;;;17.55;11.30;;;;;;;;;;4868583;29;20078;-88
2021/12/23 05:41:27;;;;;;;19.60;11.27;;;;;;;;;;4868468;29;20028;-85
2021/12/23 05:44:13;;;;;;;19.48;10.43;;;;;;;;;;4846386;29;20038;-79
2021/12/23 05:46:47;;;;;;;19.00;11.68;;;;;;;;;;4832052;29;20029;-83
2021/12/23 05:49:17;;;;;;;16.45;11.05;;;;;;;;;;4831283;29;20030;-91
2021/12/23 05:51:43;;;;;;;20.98;12.82;;;;;;;;;;4844948;29;20035;-90
2021/12/23 05:54:11;;;;;;;22.90;12.48;;;;;;;;;;4846569;29;20033;-88
2021/12/23 05:56:38;;;;;;;20.00;12.65;;;;;;;;;;4841916;29;20051;-79
2021/12/23 05:59:07;;;;;;;21.52;13.73;;;;;;;;;;4839369;29;20060;-78
2021/12/23 06:01:33;;;;;;;22.02;12.55;;;;;;;;;;4834849;29;20030;-78
2021/12/23 06:04:05;;;;;;;21.27;13.25;;;;;;;;;;4845945;29;20047;-87
2021/12/23 06:06:49;;;;;;;24.88;15.05;;;;;;;;;;4844019;29;20026;-78
2021/12/23 06:09:15;;;;;;;29.52;14.35;;;;;;;;;;4843311;29;20050;-80
2021/12/23 06:11:44;;;;;;;19.63;12.68;;;;;;;;;;4828805;29;20094;-83
2021/12/23 06:14:22;;;;;;;21.40;13.15;;;;;;;;;;4852463;29;20085;-83
2021/12/23 06:16:49;;;;;;;19.20;11.65;;;;;;;;;;4866978;29;20041;-81
2021/12/23 06:19:23;;;;;;;25.30;15.18;;;38.40;2201.60;;;;;;4883188;29;20041;-85
2021/12/23 06:21:50;;;;;;;20.55;13.30;;;39.10;2201.60;;;;;;4882304;29;20053;-79
2021/12/23 06:24:17;;;;;;;21.00;12.52;;;39.10;2201.60;;;;;;4867834;29;20033;-87
2021/12/23 06:26:45;;;;;;;22.45;13.77;;;;;;;;;;4879647;29;20073;-82
2021/12/23 06:29:11;;;;;;;21.10;13.38;;;;;;;;;;4861931;29;20014;-91
2021/12/23 06:31:41;;;;;;;23.83;14.05;;;;;;;;;;4865220;29;20018;-81
2021/12/23 06:34:32;;;;;;;21.20;12.32;;;;;;;;;;4852037;29;20033;-88
2021/12/23 06:37:01;;;;;;;22.30;11.95;;;;;;;;;;4876721;29;20045;-76
2021/12/23 06:39:32;;;;;;;20.98;12.70;;;;;;;;;;4876231;29;20044;-91
2021/12/23 06:42:23;;;;;;;19.33;11.85;;;;;;;;;;4868885;29;20065;-93
2021/12/23 06:44:50;;;;;;;26.30;14.68;;;;;;;;;;4880622;29;20045;-90
2021/12/23 06:47:16;;;;;;;23.85;14.82;;;;;;;;;;4880488;29;20037;-91
2021/12/23 06:49:47;;;;;;;21.23;14.00;;;38.90;2201.60;;;;;;4879001;29;20053;-92
2021/12/23 06:52:16;;;;;;;25.10;15.32;;;;;;;;;;4898457;29;20037;-90
2021/12/23 06:54:46;;;;;;;26.70;16.45;;;;;;;;;;4883818;29;20038;-92
2021/12/23 06:57:13;;;;;;;21.10;13.77;;;;;;;;;;4874849;29;20041;-91
2021/12/23 06:59:42;;;;;;;26.65;15.27;;;;;;;;;;4873827;29;20033;-92
2021/12/23 07:02:08;;;;;;;25.77;16.70;;;;;;;;;;4873414;29;20021;-91
2021/12/23 07:04:36;;;;;;;26.05;15.48;;;;;;;;;;4860082;29;20026;-90
2021/12/23 07:07:11;;;;;;;29.90;16.98;;;38.50;2201.60;;;;;;4878558;29;20026;-93
2021/12/23 07:09:40;;;;;;;28.98;17.63;;;13.30;2201.60;;;;;;4847916;29;20033;-92
2021/12/23 07:12:11;;;;;;;29.63;17.52;;;13.30;2201.60;;;;;;4862086;29;20054;-92
2021/12/23 07:14:38;;;;;;;25.73;16.08;;;;;;;;;;4874156;29;20029;-89
2021/12/23 07:17:10;;;;;;;26.17;17.10;;;;;;;;;;4856942;29;20037;-83
2021/12/23 07:19:36;;;;;;;31.23;18.95;;;;;;;;;;4855973;29;20074;-87
2021/12/23 07:22:03;;;;;;;33.92;19.63;;;;;;;;;;4856203;29;20089;-80
2021/12/23 07:24:29;;;;;;;28.45;18.67;;;;;;;;;;4860685;29;20016;-86
2021/12/23 07:26:56;;;;;;;32.00;18.95;;;;;;;;;;4859016;29;20037;-80
2021/12/23 07:29:22;;;;;;;32.80;19.55;;;;;;;;;;4892169;29;20033;-82
2021/12/23 07:31:48;;;;;;;38.08;20.10;;;;;;;;;;4860160;29;20026;-82
2021/12/23 07:34:21;;;;;;;33.50;20.45;;;;;;;;;;4874828;29;20069;-80
2021/12/23 07:36:48;;;;;;;28.65;17.52;;;;;;;;;;4863733;29;20431;-84
2021/12/23 07:39:17;;;;;;;32.13;19.60;;;;;;;;;;4862512;29;20037;-83
2021/12/23 07:41:43;;;;;;;33.47;18.67;;;;;;;;;;4878568;29;20062;-84
2021/12/23 07:44:19;;;;;;;37.40;21.48;;;;;;;;;;4879770;29;20038;-79
2021/12/23 07:46:50;;;;;;;50.28;24.98;;;;;;;;;;4876905;29;20033;-83
2021/12/23 07:49:16;;;;;;;42.10;25.67;;;;;;;;;;4860856;29;20097;-79
2021/12/23 07:51:42;;;;;;;45.25;25.38;;;;;;;;;;4859390;29;20037;-76
2021/12/23 07:54:10;;;;;;;46.47;27.08;;;;;;;;;;4873552;29;20022;-75
2021/12/23 07:56:36;;;;;;;61.17;34.08;;;;;;;;;;4873841;29;20060;-77
2021/12/23 07:59:06;;;;;;;49.03;27.85;;;;;;;;;;4868129;29;20533;-76
2021/12/23 08:01:32;;;;;;;48.05;28.73;;;;;;;;;;4868553;29;20501;-77
2021/12/23 08:03:58;;;;;;;51.88;30.70;;;;;;;;;;4867833;29;20029;-80
2021/12/23 08:06:24;;;;;;;55.10;32.75;;;;;;;;;;4872615;29;20034;-90
2021/12/23 08:09:12;;;;;;;49.85;28.48;;;;;;;;;;4878314;29;20017;-88
2021/12/23 08:12:05;;;;;;;54.08;31.63;;;;;;;;;;4884528;29;20048;-77
2021/12/23 08:14:35;;;;;;;63.33;33.47;;;;;;;;;;4866090;29;20034;-86
2021/12/23 08:20:05;;;;;;;51.30;25.93;;;;;;;;;;5002518;23;20044;-76
2021/12/23 08:22:36;;;;;;;90.28;45.42;;;;;;;;;;4884309;29;20048;-82
2021/12/23 08:25:05;;;;;;;63.10;36.33;;;;;;;;;;4889503;29;21667;-83
2021/12/23 08:27:44;;;;;;;201.30;100.32;;;;;;;;;;4891956;29;20032;-82
2021/12/23 08:30:12;;;;;;;58.10;30.60;;;;;;;;;;4860197;29;20033;-76
2021/12/23 08:32:38;;;;;;;44.22;27.10;;;;;;;;;;4866212;29;20058;-78
2021/12/23 08:35:08;;;;;;;34.33;22.27;;;;;;;;;;4874189;29;20033;-80
2021/12/23 08:38:08;;;;;;;37.65;22.02;;;;;;;;;;4882092;29;20040;-77
2021/12/23 08:40:46;;;;;;;34.85;20.50;;;;;;;;;;4880499;29;20014;-83
2021/12/23 08:43:13;;;;;;;37.60;22.73;;;;;;;;;;4883304;29;20037;-75
2021/12/23 08:45:42;;;;;;;30.77;19.00;;;;;;;;;;4862548;29;20044;-76
2021/12/23 08:48:33;;;;;;;30.73;17.98;;;;;;;;;;4874950;29;20534;-79
2021/12/23 08:51:08;;;;;;;25.50;15.40;;;;;;;;;;4848157;29;20034;-78
2021/12/23 08:54:03;;;;;;;23.15;14.80;;;;;;;;;;4881409;29;20030;-77
2021/12/23 08:56:32;;;;;;;;;;;;;;;;;;4844180;29;20027;-77
2021/12/23 08:58:58;;;;;;;23.80;14.50;;;;;;;;;;4838331;29;19919;-76
2021/12/23 09:01:24;;;;;;;29.63;15.75;;;;;;;;;;4826555;29;20050;-76
2021/12/23 09:03:52;;;;;;;26.92;16.13;;;;;;;;;;4817059;29;20066;-77
2021/12/23 09:06:29;;;;;;;25.50;14.45;;;;;;;;;;4837613;29;20067;-76
2021/12/23 09:09:00;;;;;;;27.05;15.05;;;;;;;;;;4816277;29;20029;-78
2021/12/23 09:11:36;;;;;;;28.08;16.33;;;;;;;;;;4845904;29;20078;-75
2021/12/23 09:14:08;;;;;;;32.08;15.13;;;;;;;;;;4837707;29;20102;-77
2021/12/23 09:16:40;;;;;;;24.20;14.45;;;;;;;;;;4829890;29;20038;-74
2021/12/23 09:19:14;;;;;;;34.13;18.63;;;;;;;;;;4826015;29;20034;-75
2021/12/23 09:21:46;;;;;;;32.58;19.05;;;;;;;;;;4835118;29;20433;-78
2021/12/23 09:24:33;;;;;;;27.10;15.75;;;;;;;;;;4828679;29;20088;-78
2021/12/23 09:27:28;;;;;;;22.42;12.63;;;;;;;;;;4826779;29;20114;-77
2021/12/23 09:32:52;;;;;;;20.98;12.60;;;;;;;;;;4831052;29;20200;-76
2021/12/23 09:35:28;;;;;;;22.70;10.85;;;;;;;;;;4864458;29;20021;-78
2021/12/23 09:37:56;;;;;;;16.50;10.65;;;;;;;;;;4872104;29;20037;-78
2021/12/23 09:40:29;;;;;;;17.95;11.25;;;;;;;;;;4870855;29;20124;-79
2021/12/23 09:43:17;;;;;;;24.45;12.52;;;;;;;;;;4876716;29;20040;-78
2021/12/23 09:45:46;;;;;;;23.48;12.57;;;;;;;;;;4858877;29;20040;-79
2021/12/23 09:48:12;;;;;;;23.92;13.65;;;;;;;;;;4863199;29;20044;-78
2021/12/23 09:50:41;;;;;;;27.83;14.27;;;;;;;;;;4860441;29;20036;-76
2021/12/23 09:53:09;;;;;;;23.20;13.20;;;;;;;;;;4871373;29;20021;-74
2021/12/23 09:55:36;;;;;;;20.75;12.77;;;;;;;;;;4861716;29;20439;-73
2021/12/23 09:58:03;;;;;;;21.75;14.25;;;;;;;;;;4858246;29;20399;-75
2021/12/23 10:00:31;;;;;;;20.95;12.38;;;;;;;;;;4862584;29;20057;-76
2021/12/23 10:02:59;;;;;;;20.23;12.85;;;;;;;;;;4867664;29;20407;-75
2021/12/23 10:05:29;;;;;;;21.50;13.23;;;;;;;;;;4881287;29;20032;-76
2021/12/23 10:07:59;;;;;;;17.50;11.80;;;;;;;;;;4884348;29;20093;-76
2021/12/23 10:38:14;;;;;;;22.67;12.18;;;;;;;;;;4921797;23;20077;-77
2021/12/23 10:40:46;;;;;;;19.20;12.90;;;;;;;;;;4908339;29;20029;-76
2021/12/23 10:43:30;;;;;;;24.23;13.55;;;;;;;;;;4898114;29;20016;-77
2021/12/23 10:45:58;;;;;;;24.60;13.85;;;;;;;;;;4897723;29;20025;-76
2021/12/23 10:48:26;;;;;;;21.38;13.10;;;;;;;;;;4914386;29;20059;-76
2021/12/23 10:51:06;;;;;;;22.25;13.40;;;;;;;;;;4914187;29;20025;-78
2021/12/23 10:59:18;;;;;;;28.88;13.57;;;;;;;;;;4897881;29;20069;-78
2021/12/23 11:02:08;;;;;;;22.38;13.70;;;;;;;;;;4895177;29;20035;-77
2021/12/23 11:04:50;;;;;;;22.42;14.55;;;;;;;;;;4913111;29;20513;-78
2021/12/23 11:07:24;;;;;;;22.95;15.07;;;;;;;;;;4899472;29;20057;-78
2021/12/23 11:10:09;;;;;;;23.92;14.73;;;;;;;;;;4893721;29;20376;-76
2021/12/23 11:38:10;;;;;;;35.70;22.27;;;;;;;;;;4883532;29;20135;-77
2021/12/23 11:43:59;;;;;;;36.03;20.73;;;;;;;;;;5464447;23;20480;-78
2021/12/23 11:46:40;;;;;;;55.15;22.58;;;;;;;;;;4919476;29;20032;-79
2021/12/23 11:49:11;;;;;;;38.60;21.75;;;;;;;;;;4900863;29;20031;-76
2021/12/23 11:54:13;;;;;;;43.60;25.35;;;;;;;;;;4913396;29;20039;-77
2021/12/23 11:56:50;;;;;;;42.08;25.90;;;;;;;;;;4902439;29;20047;-76
2021/12/23 11:59:24;;;;;;;33.40;20.48;;;;;;;;;;4901129;29;20057;-77
2021/12/23 12:01:55;;;;;;;38.67;19.85;;;;;;;;;;4912548;29;20035;-77
2021/12/23 12:04:27;;;;;;;39.50;21.58;;;;;;;;;;4909708;29;20036;-77
2021/12/23 12:07:04;;;;;;;37.97;23.50;;;;;;;;;;4909563;29;20502;-77
2021/12/23 12:09:39;;;;;;;44.22;25.20;;;;;;;;;;4907277;29;20123;-76
2021/12/23 12:12:17;;;;;;;44.83;25.50;;;;;;;;;;4906638;29;20035;-76
2021/12/23 12:14:47;;;;;;;44.65;27.05;;;;;;;;;;4906082;29;20029;-78
2021/12/23 12:17:26;;;;;;;55.80;26.73;;;;;;;;;;4908825;29;20134;-75
2021/12/23 12:20:10;;;;;;;47.78;26.92;;;;;;;;;;4908605;29;20056;-77
2021/12/23 12:23:15;;;;;;;46.13;23.95;;;;;;;;;;4898432;29;20057;-76
2021/12/23 12:25:53;;;;;;;37.75;22.67;;;;;;;;;;4825529;29;20134;-77
2021/12/23 12:28:29;;;;;;;48.30;25.63;;;;;;;;;;4840262;29;20102;-76
2021/12/23 12:31:20;;;;;;;45.00;25.77;;;;;;;;;;4841840;29;20022;-78
2021/12/23 12:33:55;;;;;;;45.28;27.23;;;;;;;;;;4821535;29;20076;-75
2021/12/23 12:36:24;;;;;;;45.88;27.50;;;;;;;;;;4833695;29;20038;-74
2021/12/23 12:39:16;;;;;;;47.58;25.33;;;;;;;;;;4843132;29;20029;-78
2021/12/23 12:41:49;;;;;;;44.25;24.58;;;;;;;;;;4822983;29;20038;-76
2021/12/23 12:47:17;;;;;;;44.00;28.00;;;;;;;;;;4835984;29;20590;-77
2021/12/23 12:49:47;;;;;;;47.63;29.52;;;;;;;;;;4827972;29;20038;-73
2021/12/23 12:55:25;;;;;;;43.67;26.55;;;;;;;;;;4843705;29;20186;-78
2021/12/23 12:57:53;;;;;;;50.83;30.23;;;;;;;;;;4809141;29;20055;-77
2021/12/23 13:00:49;;;;;;;46.67;25.75;;;;;;;;;;4839533;29;20077;-77
2021/12/23 13:03:17;;;;;;;52.28;30.35;;;;;;;;;;4934962;23;20052;-78
2021/12/23 13:05:49;;;;;;;50.13;31.25;;;;;;;;;;4912805;29;20139;-78
2021/12/23 13:08:23;;;;;;;58.03;33.38;;;;;;;;;;4913155;29;20029;-75
2021/12/23 13:10:50;;;;;;;60.35;33.05;;;;;;;;;;4903136;29;20021;-76
2021/12/23 13:13:32;;;;;;;50.72;30.38;;;;;;;;;;4892341;29;20063;-79
2021/12/23 13:16:12;;;;;;;53.00;29.40;;;;;;;;;;4909618;29;20020;-79
2021/12/23 13:18:41;;;;;;;49.22;29.30;;;;;;;;;;4867771;29;20025;-77
2021/12/23 13:21:08;;;;;;;50.72;28.33;;;;;;;;;;4893523;29;20048;-77
2021/12/23 13:23:57;;;;;;;52.95;29.05;;;;;;;;;;4904640;29;20015;-79
2021/12/23 13:26:24;;;;;;;51.55;28.60;;;;;;;;;;4904831;29;20037;-75
2021/12/23 13:28:54;;;;;;;51.30;28.73;;;;;;;;;;4894013;29;20024;-76
2021/12/23 13:31:31;;;;;;;49.13;29.75;;;;;;;;;;4873512;29;20060;-77
2021/12/23 13:33:59;;;;;;;58.20;31.90;;;;;;;;;;4904052;29;20044;-77
2021/12/23 13:36:28;;;;;;;56.95;31.95;;;;;;;;;;4900687;29;20052;-76
2021/12/23 13:38:56;;;;;;;65.97;34.78;;;;;;;;;;4882660;29;20069;-78
2021/12/23 13:41:25;;;;;;;53.80;32.50;;;;;;;;;;4870890;29;20040;-78
2021/12/23 13:43:56;;;;;;;52.88;30.70;;;;;;;;;;4870288;29;20060;-76
2021/12/23 13:46:27;;;;;;;59.72;32.40;;;;;;;;;;4886078;29;20109;-78
2021/12/23 13:49:01;;;;;;;59.72;32.72;;;;;;;;;;4893953;29;20084;-74
2021/12/23 13:51:48;;;;;;;50.17;31.55;;;;;;;;;;4894600;29;20021;-79
2021/12/23 13:54:49;;;;;;;57.60;31.15;;;;;;;;;;4892146;29;20039;-76
2021/12/23 13:57:35;;;;;;;50.58;30.40;;;;;;;;;;4884730;29;20025;-75
2021/12/23 14:00:03;;;;;;;59.33;34.90;;;;;;;;;;4891892;29;20069;-77
2021/12/23 14:02:30;;;;;;;57.15;32.78;;;;;;;;;;4872323;29;20053;-78
2021/12/23 14:05:04;;;;;;;61.78;34.58;;;;;;;;;;4861473;29;20117;-80
2021/12/23 14:13:21;;;;;;;61.88;36.25;;;;;;;;;;5487003;23;20057;-76
2021/12/23 14:15:49;;;;;;;63.58;35.95;;;;;;;;;;5087405;23;20068;-77
2021/12/23 14:24:04;;;;;;;80.60;41.05;;;;;;;;;;4908477;29;20060;-80
2021/12/23 14:26:35;;;;;;;71.75;40.70;;;;;;;;;;4915379;29;20031;-76
2021/12/23 14:29:07;;;;;;;68.68;40.45;;;;;;;;;;4890661;29;20054;-80
2021/12/23 14:31:50;;;;;;;58.78;34.90;;;;;;;;;;4892514;29;20056;-77
2021/12/23 14:34:31;;;;;;;57.28;31.38;;;;;;;;;;4851484;29;20080;-78
2021/12/23 15:14:58;;;;;;;63.92;36.58;;;;;;;;;;5119478;23;20023;-80
2021/12/23 15:17:55;;;;;;;76.35;42.80;;;;;;;;;;4882235;29;20048;-80
2021/12/23 15:20:58;;;;;;;75.45;43.30;;;;;;;;;;4860418;29;20064;-79
2021/12/23 15:26:59;;;;;;;77.25;44.47;;;;;;;;;;5581475;23;20099;-80
2021/12/23 15:32:51;;;;;;;82.03;43.85;;;;;;;;;;4781540;27;20041;-74
2021/12/23 15:35:20;;;;;;;75.78;42.60;;;;;;;;;;4878914;29;20116;-75
2021/12/23 15:37:48;;;;;;;78.43;44.38;;;;;;;;;;4882438;29;20141;-75
2021/12/23 15:40:15;;;;;;;77.82;45.53;;;;;;;;;;4881606;29;20053;-76
2021/12/23 15:42:41;;;;;;;85.72;47.95;;;;;;;;;;4867352;29;20021;-78
2021/12/23 15:45:08;;;;;;;79.00;43.63;;;;;;;;;;4871523;29;20056;-77
2021/12/23 15:47:34;;;;;;;83.18;46.00;;;;;;;;;;4884928;29;20044;-75
2021/12/23 15:50:02;;;;;;;111.60;60.35;;;;;;;;;;4878379;29;20581;-78
2021/12/23 15:52:29;;;;;;;84.45;49.25;;;;;;;;;;4880915;29;20033;-77
2021/12/23 15:54:58;;;;;;;72.00;43.40;;;;;;;;;;4883710;29;20081;-78
2021/12/23 15:57:25;;;;;;;78.13;43.17;;;;;;;;;;4883146;29;20076;-77
2021/12/23 15:59:51;;;;;;;87.82;49.30;;;;;;;;;;4878774;29;20037;-76
2021/12/23 16:02:19;;;;;;;81.07;47.28;;;;;;;;;;4879401;29;20104;-76
2021/12/23 16:04:58;;;;;;;91.32;51.72;;;;;;;;;;4881667;29;20475;-76
2021/12/23 16:07:26;;;;;;;95.82;52.40;;;;;;;;;;4873759;29;20033;-77
2021/12/23 16:09:56;;;;;;;89.55;50.70;;;;;;;;;;4883141;29;20036;-78
2021/12/23 16:12:24;;;;;;;88.03;50.85;;;;;;;;;;4884702;29;20053;-76
2021/12/23 16:15:03;;;;;;;79.65;45.83;;;;;;;;;;4892109;29;20073;-79
2021/12/23 16:17:29;;;;;;;81.05;45.22;;;;;;;;;;4882583;29;20628;-77
2021/12/23 16:19:56;;;;;;;87.47;48.67;;;;;;;;;;4879587;29;20040;-78
2021/12/23 16:22:23;;;;;;;84.82;47.75;;;;;;;;;;4882550;29;20021;-77
2021/12/23 16:24:49;;;;;;;90.72;49.03;;;;;;;;;;4895739;29;20542;-76
2021/12/23 16:27:16;;;;;;;92.57;50.00;;;;;;;;;;4859356;29;20037;-77
2021/12/23 16:30:06;;;;;;;91.38;51.40;;;;;;;;;;4882296;29;20033;-78
2021/12/23 16:32:33;;;;;;;89.93;51.45;;;;;;;;;;4866688;29;20073;-78
2021/12/23 16:34:59;;;;;;;88.05;47.53;;;;;;;;;;4868349;29;20484;-78
2021/12/23 16:37:25;;;;;;;93.32;49.53;;;;;;;;;;4849332;29;20110;-77
2021/12/23 16:39:53;;;;;;;108.93;52.70;;;;;;;;;;4867028;29;20034;-75
2021/12/23 16:42:21;;;;;;;94.53;50.72;;;;;;;;;;4865490;29;20025;-74
2021/12/23 16:44:47;;;;;;;96.72;50.25;;;;;;;;;;4863798;29;20117;-78
2021/12/23 16:47:14;;;;;;;97.93;49.58;;;;;;;;;;4864541;29;20162;-77
2021/12/23 16:49:40;;;;;;;89.90;53.22;;;;;;;;;;4863573;29;20033;-77
2021/12/23 16:52:11;;;;;;;96.95;52.83;;;;;;;;;;4848668;29;20018;-76
2021/12/23 16:54:54;;;;;;;79.75;46.20;;;;;;;;;;4875342;29;20033;-76
2021/12/23 16:57:37;;;;;;;82.80;46.40;;;;;;;;;;4875579;29;20073;-75
2021/12/23 17:00:06;;;;;;;76.55;45.38;;;;;;;;;;4874414;29;20033;-76
2021/12/23 17:02:32;;;;;;;70.75;43.00;;;;;;;;;;4878977;29;20018;-76
2021/12/23 17:04:58;;;;;;;71.53;43.88;;;;;;;;;;4880972;29;20034;-76
2021/12/23 17:07:25;;;;;;;75.38;41.20;;;;;;;;;;4877062;29;20045;-75
2021/12/23 17:09:52;;;;;;;70.50;43.15;;;;;;;;;;4876251;29;20098;-75
2021/12/23 17:12:20;;;;;;;67.45;40.67;;;;;;;;;;4869614;29;20050;-75
2021/12/23 17:14:50;;;;;;;69.47;39.92;;;;;;;;;;4870178;29;20380;-75
2021/12/23 17:17:16;;;;;;;64.20;37.10;;;;;;;;;;4869811;29;20037;-75
2021/12/23 17:19:58;;;;;;;64.95;37.55;;;;;;;;;;4864561;29;20088;-75
2021/12/23 17:22:26;;;;;;;65.85;39.95;;;;;;;;;;4868929;29;20030;-75
2021/12/23 17:24:59;;;;;;;66.75;40.28;;;;;;;;;;4866007;29;20033;-74
2021/12/23 17:27:29;;;;;;;68.53;39.25;;;;;;;;;;4844368;29;20030;-76
2021/12/23 17:29:55;;;;;;;83.82;42.00;;;;;;;;;;4861382;29;20033;-76
2021/12/23 17:32:22;;;;;;;77.20;40.67;;;;;;;;;;4864140;29;20089;-78
2021/12/23 17:34:48;;;;;;;74.03;39.95;;;;;;;;;;4848613;29;20037;-78
2021/12/23 17:37:16;;;;;;;69.32;41.05;;;;;;;;;;4864539;29;20024;-77
2021/12/23 17:39:43;;;;;;;71.97;41.67;;;;;;;;;;4862741;29;20037;-76
2021/12/23 17:42:09;;;;;;;77.40;42.75;;;;;;;;;;4866004;29;20036;-77
2021/12/23 17:44:36;;;;;;;81.30;44.63;;;;;;;;;;4863376;29;20499;-74
2021/12/23 17:47:03;;;;;;;101.07;51.90;;;;;;;;;;4860992;29;20505;-75
2021/12/23 17:49:29;;;;;;;104.15;54.65;;;;;;;;;;4859215;29;20048;-76
2021/12/23 17:51:55;;;;;;;99.00;55.38;;;;;;;;;;4860389;29;20388;-74
2021/12/23 17:54:21;;;;;;;113.82;55.58;;;;;;;;;;4863829;29;20384;-72
2021/12/23 17:56:47;;;;;;;89.63;49.45;;;;;;;;;;4862842;29;20030;-75
2021/12/23 17:59:13;;;;;;;92.75;50.33;;;;;;;;;;4863829;29;20064;-75
2021/12/23 18:01:39;;;;;;;120.60;58.33;;;;;;;;;;4869225;29;20034;-76